MMVA/VSA METAR and TAF weather

Enter ICAO airport designator
Station Type Date Time Source
MMVA METAR 2019/04/26 02:45 UTC NOAA

MMVA 260245Z 00000KT 5SM SKC 25/22 A2992 RMK SLP129 52030 942 HZY PRESRR


Station Type Date Time Source
MMVA Decoded METAR 2019/04/26 02:45 UTC NOAA

Villahermosa , Mexico (MMVA) 18-00N 092-49W
Apr 25, 2019 - 10:45 PM EDT / 2019.04.26 0245 UTC
Wind: Calm:0
Visibility: 5 mile(s):0
Sky conditions: clear
Temperature: 77 F (25 C)
Dew Point: 71 F (22 C)
Relative Humidity: 83%
Pressure (altimeter): 29.92 in. Hg (1013 hPa)
Pressure tendency: rising rapidly - 0.09 inches (3.0 hPa) higher than three hours ago
ob: MMVA 260245Z 00000KT 5SM SKC 25/22 A2992 RMK SLP129 52030 942 HZY PRESRR
cycle: 3

Station Type Date Time Source
MMVA TAF 2019/04/25 18:58 UTC NOAA

TAF MMVA 251655Z 2518/2618 04010KT P6SM SKC
FM260900 30010KT 5SM HZ OVC015 PROB40 2612/2616 3SM DZ OVC010

Example: see airport list